sensor_id;sensor_type;location;lat;lon;timestamp;pressure;altitude;pressure_sealevel;temperature;humidity
21203;BME280;10759;51.982;9.232;2023-04-12T00:01:22;99703.59;;;4.68;87.97
21203;BME280;10759;51.982;9.232;2023-04-12T00:03:50;99730.59;;;4.85;88.13
21203;BME280;10759;51.982;9.232;2023-04-12T00:06:21;99722.47;;;4.91;88.92
21203;BME280;10759;51.982;9.232;2023-04-12T00:08:58;99704.91;;;4.86;89.55
21203;BME280;10759;51.982;9.232;2023-04-12T00:11:26;99714.56;;;4.90;88.91
21203;BME280;10759;51.982;9.232;2023-04-12T00:13:54;99698.69;;;4.87;89.58
21203;BME280;10759;51.982;9.232;2023-04-12T00:16:22;99696.09;;;4.85;90.21
21203;BME280;10759;51.982;9.232;2023-04-12T00:18:50;99688.00;;;4.90;90.28
21203;BME280;10759;51.982;9.232;2023-04-12T00:21:18;99682.72;;;4.88;90.27
21203;BME280;10759;51.982;9.232;2023-04-12T00:23:47;99662.47;;;4.84;90.60
21203;BME280;10759;51.982;9.232;2023-04-12T00:26:15;99682.72;;;4.88;91.04
21203;BME280;10759;51.982;9.232;2023-04-12T00:28:44;99624.84;;;4.68;91.00
21203;BME280;10759;51.982;9.232;2023-04-12T00:31:11;99652.53;;;4.92;89.81
21203;BME280;10759;51.982;9.232;2023-04-12T00:33:39;99646.00;;;5.04;89.33
21203;BME280;10759;51.982;9.232;2023-04-12T00:36:08;99605.13;;;4.77;90.16
21203;BME280;10759;51.982;9.232;2023-04-12T00:38:36;99639.09;;;4.99;91.10
21203;BME280;10759;51.982;9.232;2023-04-12T00:41:06;99639.91;;;5.02;91.58
21203;BME280;10759;51.982;9.232;2023-04-12T00:43:33;99639.22;;;4.94;91.60
21203;BME280;10759;51.982;9.232;2023-04-12T00:46:01;99640.63;;;5.07;91.17
21203;BME280;10759;51.982;9.232;2023-04-12T00:48:29;99629.66;;;4.87;92.68
21203;BME280;10759;51.982;9.232;2023-04-12T00:50:59;99605.22;;;4.74;93.03
21203;BME280;10759;51.982;9.232;2023-04-12T00:53:27;99567.34;;;4.67;91.91
21203;BME280;10759;51.982;9.232;2023-04-12T00:55:55;99596.94;;;4.86;91.63
21203;BME280;10759;51.982;9.232;2023-04-12T00:58:24;99623.16;;;4.99;90.79
21203;BME280;10759;51.982;9.232;2023-04-12T01:00:52;99616.06;;;4.99;91.01
21203;BME280;10759;51.982;9.232;2023-04-12T01:03:23;99613.00;;;5.14;90.92
21203;BME280;10759;51.982;9.232;2023-04-12T01:06:02;99611.88;;;5.22;90.74
21203;BME280;10759;51.982;9.232;2023-04-12T01:08:42;99609.59;;;5.41;89.04
21203;BME280;10759;51.982;9.232;2023-04-12T01:11:19;99607.13;;;5.34;88.96
21203;BME280;10759;51.982;9.232;2023-04-12T01:13:57;99611.63;;;5.31;89.59
21203;BME280;10759;51.982;9.232;2023-04-12T01:16:30;99557.41;;;5.07;90.30
21203;BME280;10759;51.982;9.232;2023-04-12T01:19:04;99587.06;;;5.24;91.26
21203;BME280;10759;51.982;9.232;2023-04-12T01:21:44;99587.31;;;5.15;91.87
21203;BME280;10759;51.982;9.232;2023-04-12T01:24:24;99526.25;;;4.82;92.03
21203;BME280;10759;51.982;9.232;2023-04-12T01:26:55;99574.03;;;5.15;91.42
21203;BME280;10759;51.982;9.232;2023-04-12T01:29:28;99575.88;;;5.11;91.71
21203;BME280;10759;51.982;9.232;2023-04-12T01:31:58;99564.22;;;5.17;90.38
21203;BME280;10759;51.982;9.232;2023-04-12T01:34:28;99544.28;;;5.02;90.09
21203;BME280;10759;51.982;9.232;2023-04-12T01:37:00;99557.06;;;5.19;90.53
21203;BME280;10759;51.982;9.232;2023-04-12T01:39:29;99535.53;;;5.30;89.54
21203;BME280;10759;51.982;9.232;2023-04-12T01:41:58;99549.41;;;5.40;89.22
21203;BME280;10759;51.982;9.232;2023-04-12T01:44:28;99530.06;;;5.34;90.03
21203;BME280;10759;51.982;9.232;2023-04-12T01:46:56;99528.88;;;5.45;89.58
21203;BME280;10759;51.982;9.232;2023-04-12T01:49:28;99533.63;;;5.33;89.91
21203;BME280;10759;51.982;9.232;2023-04-12T01:52:08;99529.69;;;5.47;90.56
21203;BME280;10759;51.982;9.232;2023-04-12T01:54:38;99505.56;;;5.53;89.95
21203;BME280;10759;51.982;9.232;2023-04-12T01:57:08;99480.13;;;5.46;89.88
21203;BME280;10759;51.982;9.232;2023-04-12T01:59:40;99490.22;;;5.63;89.57
21203;BME280;10759;51.982;9.232;2023-04-12T02:02:10;99472.88;;;5.51;90.03
21203;BME280;10759;51.982;9.232;2023-04-12T02:04:38;99486.47;;;5.68;89.89
21203;BME280;10759;51.982;9.232;2023-04-12T02:07:08;99483.69;;;5.73;89.97
21203;BME280;10759;51.982;9.232;2023-04-12T02:09:38;99477.50;;;5.72;90.96
21203;BME280;10759;51.982;9.232;2023-04-12T02:12:06;99473.88;;;5.75;91.47
21203;BME280;10759;51.982;9.232;2023-04-12T02:14:35;99472.88;;;5.79;90.62
21203;BME280;10759;51.982;9.232;2023-04-12T02:17:04;99462.13;;;5.82;91.22
21203;BME280;10759;51.982;9.232;2023-04-12T02:19:35;99465.53;;;5.86;90.35
21203;BME280;10759;51.982;9.232;2023-04-12T02:22:03;99459.19;;;5.90;90.57
21203;BME280;10759;51.982;9.232;2023-04-12T02:24:31;99460.13;;;5.89;90.63
21203;BME280;10759;51.982;9.232;2023-04-12T02:26:59;99449.38;;;5.92;90.25
21203;BME280;10759;51.982;9.232;2023-04-12T02:29:27;99456.75;;;6.10;89.98
21203;BME280;10759;51.982;9.232;2023-04-12T02:31:56;99439.66;;;6.17;89.24
21203;BME280;10759;51.982;9.232;2023-04-12T02:34:27;99443.31;;;6.15;89.67
21203;BME280;10759;51.982;9.232;2023-04-12T02:37:08;99438.97;;;6.12;90.29
21203;BME280;10759;51.982;9.232;2023-04-12T02:39:36;99421.41;;;6.08;89.98
21203;BME280;10759;51.982;9.232;2023-04-12T02:42:06;99437.25;;;6.11;90.26
21203;BME280;10759;51.982;9.232;2023-04-12T02:44:36;99414.19;;;6.10;90.30
21203;BME280;10759;51.982;9.232;2023-04-12T02:47:09;99430.94;;;6.14;90.60
21203;BME280;10759;51.982;9.232;2023-04-12T02:49:41;99426.88;;;6.04;91.29
21203;BME280;10759;51.982;9.232;2023-04-12T02:52:11;99425.78;;;6.09;91.53
21203;BME280;10759;51.982;9.232;2023-04-12T02:54:52;99425.03;;;6.06;92.45
21203;BME280;10759;51.982;9.232;2023-04-12T02:57:20;99417.69;;;6.12;92.71
21203;BME280;10759;51.982;9.232;2023-04-12T02:59:49;99409.63;;;6.15;92.36
21203;BME280;10759;51.982;9.232;2023-04-12T03:02:22;99405.88;;;6.21;92.09
21203;BME280;10759;51.982;9.232;2023-04-12T03:04:57;99400.84;;;6.37;90.27
21203;BME280;10759;51.982;9.232;2023-04-12T03:07:35;99363.13;;;6.26;89.06
21203;BME280;10759;51.982;9.232;2023-04-12T03:10:05;99389.88;;;6.46;89.23
21203;BME280;10759;51.982;9.232;2023-04-12T03:12:39;99382.63;;;6.50;89.07
21203;BME280;10759;51.982;9.232;2023-04-12T03:15:13;99373.69;;;6.52;88.19
21203;BME280;10759;51.982;9.232;2023-04-12T03:17:45;99374.38;;;6.57;88.42
21203;BME280;10759;51.982;9.232;2023-04-12T03:20:16;99345.63;;;6.43;88.15
21203;BME280;10759;51.982;9.232;2023-04-12T03:22:57;99357.34;;;6.61;88.72
21203;BME280;10759;51.982;9.232;2023-04-12T03:25:26;99341.50;;;6.58;89.32
21203;BME280;10759;51.982;9.232;2023-04-12T03:27:59;99348.84;;;6.75;88.09
21203;BME280;10759;51.982;9.232;2023-04-12T03:30:43;99337.09;;;6.81;87.45
21203;BME280;10759;51.982;9.232;2023-04-12T03:33:14;99322.22;;;6.75;86.84
21203;BME280;10759;51.982;9.232;2023-04-12T03:35:45;99336.97;;;6.84;86.00
21203;BME280;10759;51.982;9.232;2023-04-12T03:38:14;99320.94;;;7.07;85.93
21203;BME280;10759;51.982;9.232;2023-04-12T03:40:42;99327.94;;;7.10;85.69
21203;BME280;10759;51.982;9.232;2023-04-12T03:43:10;99334.25;;;7.07;85.65
21203;BME280;10759;51.982;9.232;2023-04-12T03:45:38;99262.28;;;6.65;87.08
21203;BME280;10759;51.982;9.232;2023-04-12T03:48:06;99311.28;;;6.83;88.08
21203;BME280;10759;51.982;9.232;2023-04-12T03:50:41;99312.91;;;6.87;88.36
21203;BME280;10759;51.982;9.232;2023-04-12T03:53:20;99314.94;;;7.02;85.66
21203;BME280;10759;51.982;9.232;2023-04-12T03:55:48;99315.47;;;7.10;84.78
21203;BME280;10759;51.982;9.232;2023-04-12T03:58:16;99273.94;;;7.06;82.81
21203;BME280;10759;51.982;9.232;2023-04-12T04:00:45;99303.09;;;7.31;81.94
21203;BME280;10759;51.982;9.232;2023-04-12T04:03:15;99274.88;;;7.26;81.85
21203;BME280;10759;51.982;9.232;2023-04-12T04:06:01;99084.03;;;6.19;80.68
21203;BME280;10759;51.982;9.232;2023-04-12T04:08:32;99263.13;;;7.31;81.23
21203;BME280;10759;51.982;9.232;2023-04-12T04:11:00;99257.97;;;7.27;81.23
21203;BME280;10759;51.982;9.232;2023-04-12T04:13:35;99278.41;;;7.48;82.18
21203;BME280;10759;51.982;9.232;2023-04-12T04:16:07;99278.09;;;7.34;81.73
21203;BME280;10759;51.982;9.232;2023-04-12T04:18:38;99242.13;;;7.24;82.07
21203;BME280;10759;51.982;9.232;2023-04-12T04:21:09;99266.19;;;7.43;81.55
21203;BME280;10759;51.982;9.232;2023-04-12T04:23:39;99259.97;;;7.42;82.36
21203;BME280;10759;51.982;9.232;2023-04-12T04:26:11;99252.66;;;7.47;82.82
21203;BME280;10759;51.982;9.232;2023-04-12T04:28:49;99263.19;;;7.50;81.79
21203;BME280;10759;51.982;9.232;2023-04-12T04:31:21;99242.13;;;7.44;82.50
21203;BME280;10759;51.982;9.232;2023-04-12T04:33:51;99253.47;;;7.49;82.18
21203;BME280;10759;51.982;9.232;2023-04-12T04:36:27;99259.97;;;7.42;82.35
21203;BME280;10759;51.982;9.232;2023-04-12T04:38:56;99248.28;;;7.46;82.67
21203;BME280;10759;51.982;9.232;2023-04-12T04:41:36;99246.66;;;7.63;80.59
21203;BME280;10759;51.982;9.232;2023-04-12T04:44:17;99233.72;;;7.74;80.09
21203;BME280;10759;51.982;9.232;2023-04-12T04:46:51;99228.78;;;7.65;79.05
21203;BME280;10759;51.982;9.232;2023-04-12T04:49:20;99231.47;;;7.85;80.14
21203;BME280;10759;51.982;9.232;2023-04-12T04:51:47;99229.28;;;7.93;79.53
21203;BME280;10759;51.982;9.232;2023-04-12T04:54:18;99211.03;;;7.84;79.33
21203;BME280;10759;51.982;9.232;2023-04-12T04:56:46;99204.06;;;8.01;79.63
21203;BME280;10759;51.982;9.232;2023-04-12T04:59:16;99179.84;;;7.86;79.09
21203;BME280;10759;51.982;9.232;2023-04-12T05:01:45;99186.47;;;7.96;79.44
21203;BME280;10759;51.982;9.232;2023-04-12T05:04:16;99195.78;;;8.07;79.62
21203;BME280;10759;51.982;9.232;2023-04-12T05:06:45;99179.69;;;7.89;80.29
21203;BME280;10759;51.982;9.232;2023-04-12T05:09:18;99178.69;;;7.92;80.42
21203;BME280;10759;51.982;9.232;2023-04-12T05:11:53;99181.31;;;8.12;80.92
21203;BME280;10759;51.982;9.232;2023-04-12T05:14:23;99172.47;;;8.29;80.66
21203;BME280;10759;51.982;9.232;2023-04-12T05:17:07;99166.66;;;8.21;81.53
21203;BME280;10759;51.982;9.232;2023-04-12T05:19:35;99144.94;;;8.29;80.94
21203;BME280;10759;51.982;9.232;2023-04-12T05:22:03;99154.59;;;8.31;81.73
21203;BME280;10759;51.982;9.232;2023-04-12T05:24:32;99144.09;;;8.47;81.35
21203;BME280;10759;51.982;9.232;2023-04-12T05:27:00;99150.16;;;8.68;81.90
21203;BME280;10759;51.982;9.232;2023-04-12T05:29:28;99141.69;;;8.77;81.16
21203;BME280;10759;51.982;9.232;2023-04-12T05:31:57;99139.28;;;8.54;82.57
21203;BME280;10759;51.982;9.232;2023-04-12T05:34:25;99117.97;;;8.16;84.37
21203;BME280;10759;51.982;9.232;2023-04-12T05:36:54;99132.81;;;8.22;85.99
21203;BME280;10759;51.982;9.232;2023-04-12T05:39:28;99120.28;;;8.43;84.66
21203;BME280;10759;51.982;9.232;2023-04-12T05:41:57;99133.03;;;8.72;84.07
21203;BME280;10759;51.982;9.232;2023-04-12T05:44:25;99128.28;;;8.96;82.88
21203;BME280;10759;51.982;9.232;2023-04-12T05:46:54;99118.28;;;9.17;83.35
21203;BME280;10759;51.982;9.232;2023-04-12T05:49:22;99114.63;;;9.53;82.86
21203;BME280;10759;51.982;9.232;2023-04-12T05:51:50;99117.41;;;9.67;81.37
21203;BME280;10759;51.982;9.232;2023-04-12T05:54:20;99111.66;;;9.75;81.25
21203;BME280;10759;51.982;9.232;2023-04-12T05:56:51;99114.00;;;9.97;81.28
21203;BME280;10759;51.982;9.232;2023-04-12T05:59:21;99102.25;;;10.00;80.51
21203;BME280;10759;51.982;9.232;2023-04-12T06:01:49;99095.69;;;10.05;80.46
21203;BME280;10759;51.982;9.232;2023-04-12T06:04:19;99087.13;;;9.99;82.91
21203;BME280;10759;51.982;9.232;2023-04-12T06:06:47;99089.66;;;10.18;81.87
21203;BME280;10759;51.982;9.232;2023-04-12T06:09:15;99083.50;;;10.16;81.60
21203;BME280;10759;51.982;9.232;2023-04-12T06:11:43;99073.00;;;10.13;81.90
21203;BME280;10759;51.982;9.232;2023-04-12T06:14:12;99065.22;;;9.92;82.72
21203;BME280;10759;51.982;9.232;2023-04-12T06:16:41;99060.28;;;9.68;83.37
21203;BME280;10759;51.982;9.232;2023-04-12T06:19:09;99056.41;;;9.74;83.87
21203;BME280;10759;51.982;9.232;2023-04-12T06:21:37;99047.25;;;9.62;85.23
21203;BME280;10759;51.982;9.232;2023-04-12T06:24:07;99056.09;;;9.47;85.67
21203;BME280;10759;51.982;9.232;2023-04-12T06:26:36;99012.44;;;9.31;85.51
21203;BME280;10759;51.982;9.232;2023-04-12T06:29:07;99038.59;;;9.57;86.08
21203;BME280;10759;51.982;9.232;2023-04-12T06:31:35;99036.44;;;9.48;86.64
21203;BME280;10759;51.982;9.232;2023-04-12T06:34:05;99025.28;;;9.40;87.53
21203;BME280;10759;51.982;9.232;2023-04-12T06:36:36;99006.25;;;9.46;87.61
21203;BME280;10759;51.982;9.232;2023-04-12T06:39:05;99024.00;;;9.47;86.77
21203;BME280;10759;51.982;9.232;2023-04-12T06:41:33;99022.56;;;9.57;86.62
21203;BME280;10759;51.982;9.232;2023-04-12T06:44:01;99019.72;;;9.60;87.00
21203;BME280;10759;51.982;9.232;2023-04-12T06:46:30;99016.66;;;9.35;87.25
21203;BME280;10759;51.982;9.232;2023-04-12T06:48:58;99013.50;;;9.44;87.70
21203;BME280;10759;51.982;9.232;2023-04-12T06:51:28;99007.47;;;9.56;87.58
21203;BME280;10759;51.982;9.232;2023-04-12T06:53:56;99007.91;;;9.64;87.31
21203;BME280;10759;51.982;9.232;2023-04-12T06:56:24;99000.22;;;9.74;85.85
21203;BME280;10759;51.982;9.232;2023-04-12T06:58:52;98987.81;;;9.73;85.73
21203;BME280;10759;51.982;9.232;2023-04-12T07:01:20;98985.81;;;9.77;86.55
21203;BME280;10759;51.982;9.232;2023-04-12T07:03:48;98991.88;;;9.80;87.07
21203;BME280;10759;51.982;9.232;2023-04-12T07:06:16;98988.75;;;9.88;86.23
21203;BME280;10759;51.982;9.232;2023-04-12T07:08:53;98974.41;;;9.89;86.47
21203;BME280;10759;51.982;9.232;2023-04-12T07:11:21;98964.47;;;9.91;86.40
21203;BME280;10759;51.982;9.232;2023-04-12T07:13:49;98976.75;;;9.95;86.30
21203;BME280;10759;51.982;9.232;2023-04-12T07:16:17;98951.59;;;9.67;85.93
21203;BME280;10759;51.982;9.232;2023-04-12T07:18:46;98968.31;;;9.87;86.32
21203;BME280;10759;51.982;9.232;2023-04-12T07:21:14;98962.97;;;9.87;86.89
21203;BME280;10759;51.982;9.232;2023-04-12T07:23:43;98887.84;;;9.44;86.95
21203;BME280;10759;51.982;9.232;2023-04-12T07:26:13;98959.66;;;9.82;86.33
21203;BME280;10759;51.982;9.232;2023-04-12T07:28:41;98931.47;;;9.60;86.80
21203;BME280;10759;51.982;9.232;2023-04-12T07:31:09;98949.25;;;9.77;86.81
21203;BME280;10759;51.982;9.232;2023-04-12T07:33:37;98927.75;;;9.63;86.61
21203;BME280;10759;51.982;9.232;2023-04-12T07:36:09;98939.41;;;9.78;86.48
21203;BME280;10759;51.982;9.232;2023-04-12T07:38:37;98917.06;;;9.63;86.10
21203;BME280;10759;51.982;9.232;2023-04-12T07:41:05;98909.97;;;9.78;86.78
21203;BME280;10759;51.982;9.232;2023-04-12T07:43:34;98927.72;;;9.79;89.23
21203;BME280;10759;51.982;9.232;2023-04-12T07:46:02;98925.31;;;9.74;90.23
21203;BME280;10759;51.982;9.232;2023-04-12T07:48:33;98923.91;;;9.53;92.54
21203;BME280;10759;51.982;9.232;2023-04-12T07:51:01;98916.81;;;9.36;94.49
21203;BME280;10759;51.982;9.232;2023-04-12T07:53:29;98836.59;;;8.88;95.42
21203;BME280;10759;51.982;9.232;2023-04-12T07:55:57;98912.59;;;9.32;95.99
21203;BME280;10759;51.982;9.232;2023-04-12T07:58:25;98922.06;;;9.21;97.87
21203;BME280;10759;51.982;9.232;2023-04-12T08:00:55;98909.50;;;9.23;98.80
21203;BME280;10759;51.982;9.232;2023-04-12T08:03:26;98895.53;;;9.18;99.35
21203;BME280;10759;51.982;9.232;2023-04-12T08:05:54;98896.88;;;9.41;99.56
21203;BME280;10759;51.982;9.232;2023-04-12T08:08:22;98903.72;;;9.31;100.00
21203;BME280;10759;51.982;9.232;2023-04-12T08:10:51;98865.34;;;9.16;100.00
21203;BME280;10759;51.982;9.232;2023-04-12T08:13:19;98887.75;;;9.30;100.00
21203;BME280;10759;51.982;9.232;2023-04-12T08:15:47;98893.94;;;9.30;100.00
21203;BME280;10759;51.982;9.232;2023-04-12T08:18:16;98877.75;;;9.17;100.00
21203;BME280;10759;51.982;9.232;2023-04-12T08:20:44;98863.09;;;9.24;100.00
21203;BME280;10759;51.982;9.232;2023-04-12T08:23:12;98879.97;;;9.25;100.00
21203;BME280;10759;51.982;9.232;2023-04-12T08:25:41;98884.47;;;9.24;100.00
21203;BME280;10759;51.982;9.232;2023-04-12T08:28:09;98861.47;;;9.06;100.00
21203;BME280;10759;51.982;9.232;2023-04-12T08:30:37;98861.91;;;8.98;100.00
21203;BME280;10759;51.982;9.232;2023-04-12T08:33:05;98866.19;;;9.01;100.00
21203;BME280;10759;51.982;9.232;2023-04-12T08:35:35;98848.25;;;9.03;100.00
21203;BME280;10759;51.982;9.232;2023-04-12T08:38:03;98854.22;;;9.08;100.00
21203;BME280;10759;51.982;9.232;2023-04-12T08:40:34;98841.09;;;8.88;100.00
21203;BME280;10759;51.982;9.232;2023-04-12T08:43:05;98848.25;;;9.03;100.00
21203;BME280;10759;51.982;9.232;2023-04-12T08:45:34;98822.22;;;8.91;100.00
21203;BME280;10759;51.982;9.232;2023-04-12T08:48:04;98841.13;;;9.03;100.00
21203;BME280;10759;51.982;9.232;2023-04-12T08:50:32;98832.06;;;9.06;100.00
21203;BME280;10759;51.982;9.232;2023-04-12T08:53:02;98802.41;;;8.95;100.00
21203;BME280;10759;51.982;9.232;2023-04-12T08:55:30;98824.66;;;9.11;100.00
21203;BME280;10759;51.982;9.232;2023-04-12T08:57:57;98823.34;;;9.02;100.00
21203;BME280;10759;51.982;9.232;2023-04-12T09:00:26;98800.53;;;8.97;100.00
21203;BME280;10759;51.982;9.232;2023-04-12T09:02:54;98818.63;;;9.23;100.00
21203;BME280;10759;51.982;9.232;2023-04-12T09:05:27;98809.44;;;9.28;100.00
21203;BME280;10759;51.982;9.232;2023-04-12T09:07:55;98793.53;;;9.10;100.00
21203;BME280;10759;51.982;9.232;2023-04-12T09:10:32;98809.28;;;9.15;100.00
21203;BME280;10759;51.982;9.232;2023-04-12T09:13:00;98807.16;;;9.21;100.00
21203;BME280;10759;51.982;9.232;2023-04-12T09:15:29;98772.91;;;9.12;100.00
21203;BME280;10759;51.982;9.232;2023-04-12T09:18:05;98802.28;;;9.44;100.00
21203;BME280;10759;51.982;9.232;2023-04-12T09:20:35;98779.97;;;9.59;100.00
21203;BME280;10759;51.982;9.232;2023-04-12T09:23:16;98786.47;;;9.55;100.00
21203;BME280;10759;51.982;9.232;2023-04-12T09:25:46;98776.19;;;9.63;100.00
21203;BME280;10759;51.982;9.232;2023-04-12T09:28:19;98764.16;;;9.71;100.00
21203;BME280;10759;51.982;9.232;2023-04-12T09:30:47;98735.56;;;9.57;100.00
21203;BME280;10759;51.982;9.232;2023-04-12T09:33:18;98746.56;;;9.66;100.00
21203;BME280;10759;51.982;9.232;2023-04-12T09:35:47;98756.22;;;9.69;100.00
21203;BME280;10759;51.982;9.232;2023-04-12T09:38:15;98622.44;;;8.81;100.00
21203;BME280;10759;51.982;9.232;2023-04-12T09:40:43;98734.44;;;9.61;100.00
21203;BME280;10759;51.982;9.232;2023-04-12T09:43:12;98733.22;;;9.81;100.00
21203;BME280;10759;51.982;9.232;2023-04-12T09:45:41;98679.13;;;9.17;100.00
21203;BME280;10759;51.982;9.232;2023-04-12T09:48:17;98724.56;;;9.47;100.00
21203;BME280;10759;51.982;9.232;2023-04-12T09:50:46;98732.22;;;9.53;100.00
21203;BME280;10759;51.982;9.232;2023-04-12T09:53:15;98732.00;;;9.42;100.00
21203;BME280;10759;51.982;9.232;2023-04-12T09:55:44;98640.47;;;9.08;100.00
21203;BME280;10759;51.982;9.232;2023-04-12T09:58:18;98724.81;;;9.42;100.00
21203;BME280;10759;51.982;9.232;2023-04-12T10:00:47;98725.84;;;9.56;100.00
21203;BME280;10759;51.982;9.232;2023-04-12T10:03:17;98725.88;;;9.70;100.00
21203;BME280;10759;51.982;9.232;2023-04-12T10:05:45;98727.97;;;9.65;100.00
21203;BME280;10759;51.982;9.232;2023-04-12T10:08:13;98723.00;;;9.73;100.00
21203;BME280;10759;51.982;9.232;2023-04-12T10:10:43;98720.22;;;9.89;100.00
21203;BME280;10759;51.982;9.232;2023-04-12T10:13:12;98720.44;;;9.86;100.00
21203;BME280;10759;51.982;9.232;2023-04-12T10:15:44;98709.75;;;10.00;100.00
21203;BME280;10759;51.982;9.232;2023-04-12T10:18:13;98678.75;;;9.82;100.00
21203;BME280;10759;51.982;9.232;2023-04-12T10:20:44;98694.34;;;10.04;100.00
21203;BME280;10759;51.982;9.232;2023-04-12T10:23:15;98411.44;;;8.23;100.00
21203;BME280;10759;51.982;9.232;2023-04-12T10:25:46;98677.25;;;9.92;100.00
21203;BME280;10759;51.982;9.232;2023-04-12T10:28:17;98673.81;;;10.04;100.00
21203;BME280;10759;51.982;9.232;2023-04-12T10:30:47;98664.81;;;10.20;100.00
21203;BME280;10759;51.982;9.232;2023-04-12T10:33:18;98682.59;;;10.21;100.00
21203;BME280;10759;51.982;9.232;2023-04-12T10:35:54;98676.28;;;10.22;100.00
21203;BME280;10759;51.982;9.232;2023-04-12T10:38:23;98673.31;;;10.41;100.00
21203;BME280;10759;51.982;9.232;2023-04-12T10:41:13;98659.19;;;10.39;100.00
21203;BME280;10759;51.982;9.232;2023-04-12T10:43:42;98668.44;;;10.47;100.00
21203;BME280;10759;51.982;9.232;2023-04-12T10:46:49;98681.19;;;10.29;100.00
21203;BME280;10759;51.982;9.232;2023-04-12T10:49:17;98673.72;;;10.35;100.00
21203;BME280;10759;51.982;9.232;2023-04-12T10:52:11;98662.56;;;10.55;100.00
21203;BME280;10759;51.982;9.232;2023-04-12T10:54:40;98659.59;;;10.60;100.00
21203;BME280;10759;51.982;9.232;2023-04-12T10:57:41;98663.00;;;10.76;100.00
21203;BME280;10759;51.982;9.232;2023-04-12T11:00:10;98658.50;;;10.77;100.00
21203;BME280;10759;51.982;9.232;2023-04-12T11:03:06;98661.16;;;10.49;100.00
21203;BME280;10759;51.982;9.232;2023-04-12T11:05:58;98658.19;;;10.54;100.00
21203;BME280;10759;51.982;9.232;2023-04-12T11:09:04;98645.06;;;10.64;100.00
21203;BME280;10759;51.982;9.232;2023-04-12T11:11:33;98605.44;;;10.42;100.00
21203;BME280;10759;51.982;9.232;2023-04-12T11:14:01;98645.31;;;10.73;100.00
21203;BME280;10759;51.982;9.232;2023-04-12T11:16:29;98606.50;;;10.39;100.00
21203;BME280;10759;51.982;9.232;2023-04-12T11:18:59;98649.44;;;10.65;100.00
21203;BME280;10759;51.982;9.232;2023-04-12T11:21:27;98642.72;;;10.72;100.00
21203;BME280;10759;51.982;9.232;2023-04-12T11:23:55;98635.75;;;10.69;100.00
21203;BME280;10759;51.982;9.232;2023-04-12T11:26:28;98644.44;;;10.73;100.00
21203;BME280;10759;51.982;9.232;2023-04-12T11:28:57;98634.69;;;10.72;100.00
21203;BME280;10759;51.982;9.232;2023-04-12T11:31:25;98633.03;;;10.84;100.00
21203;BME280;10759;51.982;9.232;2023-04-12T11:33:53;98630.44;;;10.82;100.00
21203;BME280;10759;51.982;9.232;2023-04-12T11:36:23;98628.44;;;10.59;100.00
21203;BME280;10759;51.982;9.232;2023-04-12T11:38:52;98630.00;;;10.76;100.00
21203;BME280;10759;51.982;9.232;2023-04-12T11:41:22;98634.34;;;10.64;100.00
21203;BME280;10759;51.982;9.232;2023-04-12T11:43:51;98619.47;;;10.72;100.00
21203;BME280;10759;51.982;9.232;2023-04-12T11:46:19;98581.84;;;10.61;100.00
21203;BME280;10759;51.982;9.232;2023-04-12T11:48:47;98614.84;;;11.02;100.00
21203;BME280;10759;51.982;9.232;2023-04-12T11:51:19;98596.56;;;10.81;100.00
21203;BME280;10759;51.982;9.232;2023-04-12T11:53:52;98618.59;;;10.99;100.00
21203;BME280;10759;51.982;9.232;2023-04-12T11:56:21;98611.91;;;10.92;100.00
21203;BME280;10759;51.982;9.232;2023-04-12T11:58:49;98614.84;;;11.02;100.00
21203;BME280;10759;51.982;9.232;2023-04-12T12:01:19;98595.88;;;11.05;100.00
21203;BME280;10759;51.982;9.232;2023-04-12T12:03:48;98588.16;;;11.00;100.00
21203;BME280;10759;51.982;9.232;2023-04-12T12:06:17;98577.75;;;10.95;100.00
21203;BME280;10759;51.982;9.232;2023-04-12T12:08:47;98574.34;;;11.32;100.00
21203;BME280;10759;51.982;9.232;2023-04-12T12:11:18;98575.00;;;11.48;100.00
21203;BME280;10759;51.982;9.232;2023-04-12T12:13:48;98569.75;;;11.59;100.00
21203;BME280;10759;51.982;9.232;2023-04-12T12:16:17;98581.41;;;11.84;100.00
21203;BME280;10759;51.982;9.232;2023-04-12T12:18:47;98580.88;;;11.66;100.00
21203;BME280;10759;51.982;9.232;2023-04-12T12:21:18;98584.44;;;11.54;100.00
21203;BME280;10759;51.982;9.232;2023-04-12T12:23:47;98587.44;;;11.62;100.00
21203;BME280;10759;51.982;9.232;2023-04-12T12:26:21;98595.59;;;11.60;100.00
21203;BME280;10759;51.982;9.232;2023-04-12T12:28:51;98581.53;;;11.44;100.00
21203;BME280;10759;51.982;9.232;2023-04-12T12:31:20;98588.94;;;11.41;100.00
21203;BME280;10759;51.982;9.232;2023-04-12T12:33:53;98569.00;;;11.45;100.00
21203;BME280;10759;51.982;9.232;2023-04-12T12:36:28;98589.16;;;11.63;100.00
21203;BME280;10759;51.982;9.232;2023-04-12T12:39:02;98581.00;;;11.65;100.00
21203;BME280;10759;51.982;9.232;2023-04-12T12:41:34;98582.41;;;11.57;100.00
21203;BME280;10759;51.982;9.232;2023-04-12T12:44:02;98570.72;;;11.46;100.00
21203;BME280;10759;51.982;9.232;2023-04-12T12:46:30;98580.81;;;11.42;100.00
21203;BME280;10759;51.982;9.232;2023-04-12T12:49:17;98582.28;;;11.33;100.00
21203;BME280;10759;51.982;9.232;2023-04-12T12:51:45;98570.72;;;11.33;100.00
21203;BME280;10759;51.982;9.232;2023-04-12T12:54:15;98568.34;;;11.54;100.00
21203;BME280;10759;51.982;9.232;2023-04-12T12:57:04;98543.88;;;11.46;100.00
21203;BME280;10759;51.982;9.232;2023-04-12T12:59:32;98567.38;;;11.68;100.00
21203;BME280;10759;51.982;9.232;2023-04-12T13:02:00;98571.13;;;11.65;100.00
21203;BME280;10759;51.982;9.232;2023-04-12T13:04:28;98574.13;;;11.73;100.00
21203;BME280;10759;51.982;9.232;2023-04-12T13:06:56;98567.13;;;11.83;100.00
21203;BME280;10759;51.982;9.232;2023-04-12T13:09:24;98569.19;;;11.67;100.00
21203;BME280;10759;51.982;9.232;2023-04-12T13:11:52;98558.69;;;11.64;100.00
21203;BME280;10759;51.982;9.232;2023-04-12T13:14:21;98551.06;;;11.58;100.00
21203;BME280;10759;51.982;9.232;2023-04-12T13:16:49;98550.31;;;11.56;100.00
21203;BME280;10759;51.982;9.232;2023-04-12T13:19:17;98536.69;;;11.72;100.00
21203;BME280;10759;51.982;9.232;2023-04-12T13:21:45;98504.59;;;11.70;100.00
21203;BME280;10759;51.982;9.232;2023-04-12T13:24:13;98537.72;;;11.95;100.00